sensor_id;sensor_type;location;lat;lon;timestamp;pressure;altitude;pressure_sealevel;temperature;humidity
69624;BME280;56843;52.020;5.670;2022-08-01T00:00:42;101453.75;;;17.54;83.21
69624;BME280;56843;52.020;5.670;2022-08-01T00:02:13;101464.56;;;17.54;83.13
69624;BME280;56843;52.020;5.670;2022-08-01T00:03:43;101449.47;;;17.53;83.26
69624;BME280;56843;52.020;5.670;2022-08-01T00:05:14;101457.56;;;17.53;83.31
69624;BME280;56843;52.020;5.670;2022-08-01T00:06:44;101458.38;;;17.53;83.20
69624;BME280;56843;52.020;5.670;2022-08-01T00:08:15;101459.53;;;17.52;83.10
69624;BME280;56843;52.020;5.670;2022-08-01T00:09:45;101450.63;;;17.52;83.10
69624;BME280;56843;52.020;5.670;2022-08-01T00:11:16;101452.53;;;17.51;83.34
69624;BME280;56843;52.020;5.670;2022-08-01T00:12:46;101460.28;;;17.53;83.02
69624;BME280;56843;52.020;5.670;2022-08-01T00:14:17;101462.97;;;17.53;83.10
69624;BME280;56843;52.020;5.670;2022-08-01T00:15:47;101461.44;;;17.52;83.14
69624;BME280;56843;52.020;5.670;2022-08-01T00:17:18;101456.81;;;17.52;83.09
69624;BME280;56843;52.020;5.670;2022-08-01T00:18:51;101456.03;;;17.52;83.21
69624;BME280;56843;52.020;5.670;2022-08-01T00:20:21;101464.56;;;17.54;83.05
69624;BME280;56843;52.020;5.670;2022-08-01T00:21:52;101456.03;;;17.52;83.10
69624;BME280;56843;52.020;5.670;2022-08-01T00:23:22;101457.94;;;17.51;82.98
69624;BME280;56843;52.020;5.670;2022-08-01T00:24:53;101462.97;;;17.53;82.91
69624;BME280;56843;52.020;5.670;2022-08-01T00:26:23;101463.75;;;17.53;83.11
69624;BME280;56843;52.020;5.670;2022-08-01T00:27:54;101461.44;;;17.52;82.68
69624;BME280;56843;52.020;5.670;2022-08-01T00:29:24;101463.75;;;17.53;83.08
69624;BME280;56843;52.020;5.670;2022-08-01T00:30:54;101463.75;;;17.53;83.11
69624;BME280;56843;52.020;5.670;2022-08-01T00:32:25;101459.09;;;17.50;83.18
69624;BME280;56843;52.020;5.670;2022-08-01T00:33:55;101459.44;;;17.49;83.16
69624;BME280;56843;52.020;5.670;2022-08-01T00:35:26;101462.50;;;17.47;83.18
69624;BME280;56843;52.020;5.670;2022-08-01T00:36:56;101467.47;;;17.45;83.21
69624;BME280;56843;52.020;5.670;2022-08-01T00:38:27;101468.94;;;17.43;83.10
69624;BME280;56843;52.020;5.670;2022-08-01T00:39:57;101470.50;;;17.44;83.24
69624;BME280;56843;52.020;5.670;2022-08-01T00:41:28;101469.38;;;17.45;83.31
69624;BME280;56843;52.020;5.670;2022-08-01T00:42:58;101472.06;;;17.45;83.30
69624;BME280;56843;52.020;5.670;2022-08-01T00:44:29;101470.94;;;17.46;83.11
69624;BME280;56843;52.020;5.670;2022-08-01T00:45:59;101479.06;;;17.46;83.14
69624;BME280;56843;52.020;5.670;2022-08-01T00:47:29;101462.06;;;17.45;83.23
69624;BME280;56843;52.020;5.670;2022-08-01T00:49:00;101465.88;;;17.44;83.24
69624;BME280;56843;52.020;5.670;2022-08-01T00:50:31;101464.75;;;17.45;83.35
69624;BME280;56843;52.020;5.670;2022-08-01T00:52:03;101465.56;;;17.46;82.98
69624;BME280;56843;52.020;5.670;2022-08-01T00:53:35;101462.84;;;17.46;83.18
69624;BME280;56843;52.020;5.670;2022-08-01T00:55:06;101467.47;;;17.45;83.06
69624;BME280;56843;52.020;5.670;2022-08-01T00:56:36;101459.34;;;17.45;83.09
69624;BME280;56843;52.020;5.670;2022-08-01T00:58:07;101464.41;;;17.47;82.68
69624;BME280;56843;52.020;5.670;2022-08-01T00:59:38;101452.47;;;17.48;82.88
69624;BME280;56843;52.020;5.670;2022-08-01T01:01:09;101461.34;;;17.48;82.83
69624;BME280;56843;52.020;5.670;2022-08-01T01:02:40;101454.38;;;17.47;82.92
69624;BME280;56843;52.020;5.670;2022-08-01T01:04:10;101459.34;;;17.45;82.81
69624;BME280;56843;52.020;5.670;2022-08-01T01:06:01;101458.56;;;17.45;83.04
69624;BME280;56843;52.020;5.670;2022-08-01T01:11:15;101463.91;;;17.41;83.37
69624;BME280;56843;52.020;5.670;2022-08-01T01:12:53;101458.41;;;17.38;83.15
69624;BME280;56843;52.020;5.670;2022-08-01T01:14:38;101461.53;;;17.40;83.21
69624;BME280;56843;52.020;5.670;2022-08-01T01:16:16;101461.53;;;17.40;83.73
69624;BME280;56843;52.020;5.670;2022-08-01T01:17:52;101465.44;;;17.42;83.36
69624;BME280;56843;52.020;5.670;2022-08-01T01:19:24;101463.13;;;17.41;83.17
69624;BME280;56843;52.020;5.670;2022-08-01T01:21:07;101468.94;;;17.43;83.16
69624;BME280;56843;52.020;5.670;2022-08-01T01:23:02;101460.06;;;17.42;83.10
69624;BME280;56843;52.020;5.670;2022-08-01T01:24:42;101464.22;;;17.40;83.44
69624;BME280;56843;52.020;5.670;2022-08-01T01:28:20;101457.63;;;17.37;83.18
69624;BME280;56843;52.020;5.670;2022-08-01T01:29:57;101468.00;;;17.35;83.42
69624;BME280;56843;52.020;5.670;2022-08-01T01:31:31;101456.75;;;17.33;83.64
69624;BME280;56843;52.020;5.670;2022-08-01T01:33:06;101454.41;;;17.32;83.59
69624;BME280;56843;52.020;5.670;2022-08-01T01:34:40;101455.13;;;17.29;83.64
69624;BME280;56843;52.020;5.670;2022-08-01T01:36:14;101465.47;;;17.27;83.90
69624;BME280;56843;52.020;5.670;2022-08-01T01:37:47;101463.50;;;17.24;83.95
69624;BME280;56843;52.020;5.670;2022-08-01T01:39:20;101470.47;;;17.25;84.09
69624;BME280;56843;52.020;5.670;2022-08-01T01:40:52;101470.03;;;17.23;84.10
69624;BME280;56843;52.020;5.670;2022-08-01T01:42:25;101466.22;;;17.24;84.19
69624;BME280;56843;52.020;5.670;2022-08-01T01:43:56;101471.59;;;17.24;84.01
69624;BME280;56843;52.020;5.670;2022-08-01T01:45:29;101465.06;;;17.25;84.45
69624;BME280;56843;52.020;5.670;2022-08-01T01:47:01;101472.03;;;17.26;84.20
69624;BME280;56843;52.020;5.670;2022-08-01T01:48:33;101469.75;;;17.28;84.31
69624;BME280;56843;52.020;5.670;2022-08-01T01:50:05;101464.38;;;17.28;84.13
69624;BME280;56843;52.020;5.670;2022-08-01T01:51:39;101462.44;;;17.28;84.11
69624;BME280;56843;52.020;5.670;2022-08-01T01:53:12;101473.31;;;17.32;84.02
69624;BME280;56843;52.020;5.670;2022-08-01T01:54:49;101467.56;;;17.33;83.85
69624;BME280;56843;52.020;5.670;2022-08-01T01:56:21;101471.06;;;17.34;83.90
69624;BME280;56843;52.020;5.670;2022-08-01T01:57:53;101469.13;;;17.34;83.91
69624;BME280;56843;52.020;5.670;2022-08-01T01:59:29;101470.34;;;17.37;84.01
69624;BME280;56843;52.020;5.670;2022-08-01T02:01:01;101473.06;;;17.37;83.67
69624;BME280;56843;52.020;5.670;2022-08-01T02:02:34;101471.56;;;17.39;83.83
69624;BME280;56843;52.020;5.670;2022-08-01T02:04:06;101473.50;;;17.39;83.70
69624;BME280;56843;52.020;5.670;2022-08-01T02:05:38;101470.84;;;17.42;83.53
69624;BME280;56843;52.020;5.670;2022-08-01T02:07:12;101475.13;;;17.43;83.68
69624;BME280;56843;52.020;5.670;2022-08-01T02:08:45;101467.78;;;17.44;83.43
69624;BME280;56843;52.020;5.670;2022-08-01T02:10:17;101477.47;;;17.45;83.87
69624;BME280;56843;52.020;5.670;2022-08-01T02:11:49;101473.66;;;17.46;83.62
69624;BME280;56843;52.020;5.670;2022-08-01T02:13:20;101466.66;;;17.45;83.56
69624;BME280;56843;52.020;5.670;2022-08-01T02:14:53;101475.19;;;17.47;83.88
69624;BME280;56843;52.020;5.670;2022-08-01T02:16:36;101472.50;;;17.47;83.76
69624;BME280;56843;52.020;5.670;2022-08-01T02:18:08;101469.38;;;17.45;83.31
69624;BME280;56843;52.020;5.670;2022-08-01T02:19:41;101471.72;;;17.46;83.60
69624;BME280;56843;52.020;5.670;2022-08-01T02:21:16;101473.72;;;17.49;83.59
69624;BME280;56843;52.020;5.670;2022-08-01T02:22:53;101472.94;;;17.49;83.73
69624;BME280;56843;52.020;5.670;2022-08-01T02:24:37;101466.41;;;17.50;83.52
69624;BME280;56843;52.020;5.670;2022-08-01T02:26:14;101461.19;;;17.41;83.66
69624;BME280;56843;52.020;5.670;2022-08-01T02:27:52;101470.25;;;17.33;84.04
69624;BME280;56843;52.020;5.670;2022-08-01T02:29:44;101464.19;;;17.21;84.26
69624;BME280;56843;52.020;5.670;2022-08-01T02:31:19;101461.25;;;17.10;85.10
69624;BME280;56843;52.020;5.670;2022-08-01T02:32:55;101464.22;;;17.05;85.08
69624;BME280;56843;52.020;5.670;2022-08-01T02:34:29;101468.75;;;17.01;85.40
69624;BME280;56843;52.020;5.670;2022-08-01T02:36:02;101468.75;;;17.01;85.34
69624;BME280;56843;52.020;5.670;2022-08-01T02:37:34;101465.25;;;17.01;85.69
69624;BME280;56843;52.020;5.670;2022-08-01T02:39:09;101471.81;;;17.00;85.74
69624;BME280;56843;52.020;5.670;2022-08-01T02:40:45;101464.03;;;16.98;85.93
69624;BME280;56843;52.020;5.670;2022-08-01T02:42:18;101478.69;;;16.97;85.97
69624;BME280;56843;52.020;5.670;2022-08-01T02:43:51;101471.69;;;16.96;86.02
69624;BME280;56843;52.020;5.670;2022-08-01T02:45:25;101479.00;;;16.96;86.13
69624;BME280;56843;52.020;5.670;2022-08-01T02:47:00;101469.00;;;16.96;85.95
69624;BME280;56843;52.020;5.670;2022-08-01T02:48:35;101477.00;;;16.92;86.23
69624;BME280;56843;52.020;5.670;2022-08-01T02:50:08;101487.44;;;16.94;86.38
69624;BME280;56843;52.020;5.670;2022-08-01T02:51:43;101487.44;;;16.94;86.24
69624;BME280;56843;52.020;5.670;2022-08-01T02:53:16;101478.53;;;16.93;86.33
69624;BME280;56843;52.020;5.670;2022-08-01T02:54:50;101476.31;;;16.96;86.03
69624;BME280;56843;52.020;5.670;2022-08-01T02:56:23;101475.97;;;16.97;86.34
69624;BME280;56843;52.020;5.670;2022-08-01T02:58:06;101476.75;;;16.98;86.51
69624;BME280;56843;52.020;5.670;2022-08-01T02:59:38;101482.13;;;16.98;86.33
69624;BME280;56843;52.020;5.670;2022-08-01T03:01:09;101474.03;;;16.98;86.44
69624;BME280;56843;52.020;5.670;2022-08-01T03:02:43;101477.09;;;16.96;86.75
69624;BME280;56843;52.020;5.670;2022-08-01T03:04:15;101473.63;;;16.96;86.64
69624;BME280;56843;52.020;5.670;2022-08-01T03:05:48;101468.22;;;16.96;86.67
69624;BME280;56843;52.020;5.670;2022-08-01T03:07:19;101467.09;;;16.97;86.69
69624;BME280;56843;52.020;5.670;2022-08-01T03:08:52;101469.78;;;16.97;86.53
69624;BME280;56843;52.020;5.670;2022-08-01T03:10:24;101483.28;;;16.97;86.68
69624;BME280;56843;52.020;5.670;2022-08-01T03:12:00;101477.88;;;16.97;86.82
69624;BME280;56843;52.020;5.670;2022-08-01T03:13:32;101479.00;;;16.96;86.92
69624;BME280;56843;52.020;5.670;2022-08-01T03:15:04;101472.06;;;16.95;86.83
69624;BME280;56843;52.020;5.670;2022-08-01T03:16:38;101472.84;;;16.95;86.93
69624;BME280;56843;52.020;5.670;2022-08-01T03:18:10;101474.28;;;16.92;87.08
69624;BME280;56843;52.020;5.670;2022-08-01T03:19:43;101479.34;;;16.94;87.28
69624;BME280;56843;52.020;5.670;2022-08-01T03:21:16;101478.53;;;16.93;86.92
69624;BME280;56843;52.020;5.670;2022-08-01T03:22:49;101476.19;;;16.92;86.93
69624;BME280;56843;52.020;5.670;2022-08-01T03:24:23;101477.69;;;16.89;87.21
69624;BME280;56843;52.020;5.670;2022-08-01T03:25:54;101476.88;;;16.89;87.22
69624;BME280;56843;52.020;5.670;2022-08-01T03:27:25;101473.88;;;16.90;87.16
69624;BME280;56843;52.020;5.670;2022-08-01T03:28:57;101476.19;;;16.92;86.80
69624;BME280;56843;52.020;5.670;2022-08-01T03:30:30;101471.59;;;16.92;86.85
69624;BME280;56843;52.020;5.670;2022-08-01T03:32:03;101473.16;;;16.93;86.95
69624;BME280;56843;52.020;5.670;2022-08-01T03:33:35;101472.34;;;16.93;86.89
69624;BME280;56843;52.020;5.670;2022-08-01T03:35:06;101472.34;;;16.93;87.33
69624;BME280;56843;52.020;5.670;2022-08-01T03:36:50;101462.72;;;16.92;87.08
69624;BME280;56843;52.020;5.670;2022-08-01T03:38:25;101470.81;;;16.92;87.17
69624;BME280;56843;52.020;5.670;2022-08-01T03:40:07;101482.41;;;16.92;87.13
69624;BME280;56843;52.020;5.670;2022-08-01T03:41:41;101473.88;;;16.90;87.21
69624;BME280;56843;52.020;5.670;2022-08-01T03:43:24;101478.03;;;16.88;87.13
69624;BME280;56843;52.020;5.670;2022-08-01T03:45:00;101474.47;;;16.84;87.47
69624;BME280;56843;52.020;5.670;2022-08-01T03:46:37;101479.75;;;16.80;87.46
69624;BME280;56843;52.020;5.670;2022-08-01T03:48:19;101466.53;;;16.75;87.66
69624;BME280;56843;52.020;5.670;2022-08-01T03:49:53;101475.22;;;16.69;87.78
69624;BME280;56843;52.020;5.670;2022-08-01T03:51:25;101469.06;;;16.68;87.78
69624;BME280;56843;52.020;5.670;2022-08-01T03:52:57;101475.22;;;16.69;87.76
69624;BME280;56843;52.020;5.670;2022-08-01T03:54:31;101463.25;;;16.66;87.81
69624;BME280;56843;52.020;5.670;2022-08-01T03:56:04;101470.53;;;16.66;87.72
69624;BME280;56843;52.020;5.670;2022-08-01T03:57:38;101482.81;;;16.63;87.81
69624;BME280;56843;52.020;5.670;2022-08-01T03:59:10;101474.72;;;16.63;87.94
69624;BME280;56843;52.020;5.670;2022-08-01T04:00:40;101478.97;;;16.64;88.08
69624;BME280;56843;52.020;5.670;2022-08-01T04:02:12;101474.78;;;16.67;87.96
69624;BME280;56843;52.020;5.670;2022-08-01T04:03:45;101480.63;;;16.69;87.73
69624;BME280;56843;52.020;5.670;2022-08-01T04:05:16;101487.25;;;16.71;87.70
69624;BME280;56843;52.020;5.670;2022-08-01T04:06:47;101478.47;;;16.74;87.28
69624;BME280;56843;52.020;5.670;2022-08-01T04:08:21;101486.19;;;16.76;87.58
69624;BME280;56843;52.020;5.670;2022-08-01T04:09:52;101476.63;;;16.78;87.45
69624;BME280;56843;52.020;5.670;2022-08-01T04:11:24;101480.56;;;16.81;87.49
69624;BME280;56843;52.020;5.670;2022-08-01T04:12:55;101481.00;;;16.83;87.24
69624;BME280;56843;52.020;5.670;2022-08-01T04:14:27;101486.03;;;16.84;87.36
69624;BME280;56843;52.020;5.670;2022-08-01T04:15:58;101498.41;;;16.85;87.51
69624;BME280;56843;52.020;5.670;2022-08-01T04:17:28;101488.84;;;16.88;87.35
69624;BME280;56843;52.020;5.670;2022-08-01T04:18:59;101477.69;;;16.89;87.28
69624;BME280;56843;52.020;5.670;2022-08-01T04:20:29;101490.81;;;16.91;87.11
69624;BME280;56843;52.020;5.670;2022-08-01T04:22:00;101487.78;;;16.92;87.05
69624;BME280;56843;52.020;5.670;2022-08-01T04:23:31;101486.63;;;16.93;86.95
69624;BME280;56843;52.020;5.670;2022-08-01T04:25:08;101487.09;;;16.96;86.97
69624;BME280;56843;52.020;5.670;2022-08-01T04:26:41;101497.56;;;16.97;87.12
69624;BME280;56843;52.020;5.670;2022-08-01T04:28:14;101496.09;;;17.00;87.00
69624;BME280;56843;52.020;5.670;2022-08-01T04:29:47;101491.13;;;17.02;86.67
69624;BME280;56843;52.020;5.670;2022-08-01T04:31:22;101490.78;;;17.03;86.75
69624;BME280;56843;52.020;5.670;2022-08-01T04:32:59;101491.63;;;17.07;86.58
69624;BME280;56843;52.020;5.670;2022-08-01T04:34:31;101487.38;;;17.06;86.62
69624;BME280;56843;52.020;5.670;2022-08-01T04:36:04;101495.13;;;17.08;86.34
69624;BME280;56843;52.020;5.670;2022-08-01T04:37:37;101496.78;;;17.12;86.33
69624;BME280;56843;52.020;5.670;2022-08-01T04:39:09;101496.06;;;17.15;86.08
69624;BME280;56843;52.020;5.670;2022-08-01T04:40:41;101498.50;;;17.20;86.23
69624;BME280;56843;52.020;5.670;2022-08-01T04:42:14;101507.03;;;17.22;85.91
69624;BME280;56843;52.020;5.670;2022-08-01T04:43:46;101504.00;;;17.24;85.76
69624;BME280;56843;52.020;5.670;2022-08-01T04:45:17;101512.09;;;17.24;85.65
69624;BME280;56843;52.020;5.670;2022-08-01T04:46:49;101518.69;;;17.26;85.79
69624;BME280;56843;52.020;5.670;2022-08-01T04:48:21;101511.81;;;17.29;85.59
69624;BME280;56843;52.020;5.670;2022-08-01T04:49:54;101507.31;;;17.33;85.58
69624;BME280;56843;52.020;5.670;2022-08-01T04:51:26;101516.59;;;17.35;85.47
69624;BME280;56843;52.020;5.670;2022-08-01T04:52:57;101517.81;;;17.38;85.31
69624;BME280;56843;52.020;5.670;2022-08-01T04:54:29;101520.25;;;17.43;85.11
69624;BME280;56843;52.020;5.670;2022-08-01T04:56:00;101521.47;;;17.45;84.89
69624;BME280;56843;52.020;5.670;2022-08-01T04:57:30;101515.34;;;17.48;84.93
69624;BME280;56843;52.020;5.670;2022-08-01T04:59:01;101520.41;;;17.50;84.86
69624;BME280;56843;52.020;5.670;2022-08-01T05:00:50;101516.13;;;17.49;84.61
69624;BME280;56843;52.020;5.670;2022-08-01T05:02:21;101522.41;;;17.53;84.49
69624;BME280;56843;52.020;5.670;2022-08-01T05:03:51;101521.69;;;17.56;84.40
69624;BME280;56843;52.020;5.670;2022-08-01T05:05:22;101525.97;;;17.57;84.44
69624;BME280;56843;52.020;5.670;2022-08-01T05:06:52;101522.91;;;17.58;84.59
69624;BME280;56843;52.020;5.670;2022-08-01T05:08:23;101525.63;;;17.58;84.32
69624;BME280;56843;52.020;5.670;2022-08-01T05:09:53;101531.81;;;17.59;84.37
69624;BME280;56843;52.020;5.670;2022-08-01T05:11:24;101528.69;;;17.57;84.15
69624;BME280;56843;52.020;5.670;2022-08-01T05:12:54;101517.09;;;17.56;84.35
69624;BME280;56843;52.020;5.670;2022-08-01T05:14:25;101524.84;;;17.58;84.17
69624;BME280;56843;52.020;5.670;2022-08-01T05:15:56;101527.16;;;17.59;84.40
69624;BME280;56843;52.020;5.670;2022-08-01T05:17:26;101527.16;;;17.59;84.30
69624;BME280;56843;52.020;5.670;2022-08-01T05:18:56;101515.25;;;17.60;84.46
69624;BME280;56843;52.020;5.670;2022-08-01T05:20:27;101527.28;;;17.63;83.97
69624;BME280;56843;52.020;5.670;2022-08-01T05:22:01;101525.00;;;17.65;83.93
69624;BME280;56843;52.020;5.670;2022-08-01T05:23:34;101535.00;;;17.64;84.17
69624;BME280;56843;52.020;5.670;2022-08-01T05:25:05;101530.41;;;17.65;83.85
69624;BME280;56843;52.020;5.670;2022-08-01T05:26:36;101528.13;;;17.67;84.18
69624;BME280;56843;52.020;5.670;2022-08-01T05:28:06;101530.81;;;17.67;83.75
69624;BME280;56843;52.020;5.670;2022-08-01T05:29:37;101533.16;;;17.69;83.55
69624;BME280;56843;52.020;5.670;2022-08-01T05:31:07;101525.06;;;17.69;83.68
69624;BME280;56843;52.020;5.670;2022-08-01T05:32:38;101537.03;;;17.68;83.85
69624;BME280;56843;52.020;5.670;2022-08-01T05:34:09;101535.72;;;17.61;84.04
69624;BME280;56843;52.020;5.670;2022-08-01T05:35:39;101534.72;;;17.50;84.46
69624;BME280;56843;52.020;5.670;2022-08-01T05:37:10;101537.13;;;17.40;84.72
69624;BME280;56843;52.020;5.670;2022-08-01T05:38:40;101532.28;;;17.30;84.99
69624;BME280;56843;52.020;5.670;2022-08-01T05:40:11;101536.53;;;17.15;85.36
69624;BME280;56843;52.020;5.670;2022-08-01T05:41:42;101544.19;;;16.98;85.78
69624;BME280;56843;52.020;5.670;2022-08-01T05:43:12;101543.41;;;16.81;86.16
69624;BME280;56843;52.020;5.670;2022-08-01T05:44:43;101554.66;;;16.71;86.67
69624;BME280;56843;52.020;5.670;2022-08-01T05:46:13;101542.03;;;16.60;86.92
69624;BME280;56843;52.020;5.670;2022-08-01T05:47:43;101548.81;;;16.54;87.05
69624;BME280;56843;52.020;5.670;2022-08-01T05:49:14;101554.19;;;16.54;87.33
69624;BME280;56843;52.020;5.670;2022-08-01T05:50:44;101549.25;;;16.56;87.15
69624;BME280;56843;52.020;5.670;2022-08-01T05:52:16;101554.75;;;16.59;87.38
69624;BME280;56843;52.020;5.670;2022-08-01T05:53:46;101551.78;;;16.64;86.81
69624;BME280;56843;52.020;5.670;2022-08-01T05:55:17;101548.84;;;16.69;86.76
69624;BME280;56843;52.020;5.670;2022-08-01T05:56:48;101553.19;;;16.74;86.72
69624;BME280;56843;52.020;5.670;2022-08-01T05:58:18;101553.75;;;16.79;86.49
69624;BME280;56843;52.020;5.670;2022-08-01T05:59:48;101555.72;;;16.82;86.48
69624;BME280;56843;52.020;5.670;2022-08-01T06:01:19;101555.91;;;16.89;86.40
69624;BME280;56843;52.020;5.670;2022-08-01T06:02:50;101554.22;;;16.97;86.15
69624;BME280;56843;52.020;5.670;2022-08-01T06:04:34;101556.75;;;17.06;85.74
69624;BME280;56843;52.020;5.670;2022-08-01T06:06:05;101556.94;;;17.13;85.63
69624;BME280;56843;52.020;5.670;2022-08-01T06:07:36;101560.94;;;17.19;85.72
69624;BME280;56843;52.020;5.670;2022-08-01T06:09:08;101563.28;;;17.20;85.13
69624;BME280;56843;52.020;5.670;2022-08-01T06:10:39;101564.00;;;17.17;85.36
69624;BME280;56843;52.020;5.670;2022-08-01T06:12:10;101568.69;;;17.20;85.22
69624;BME280;56843;52.020;5.670;2022-08-01T06:13:40;101564.25;;;17.28;85.21
69624;BME280;56843;52.020;5.670;2022-08-01T06:15:13;101566.34;;;17.34;85.01
69624;BME280;56843;52.020;5.670;2022-08-01T06:16:49;101569.97;;;17.42;84.74
69624;BME280;56843;52.020;5.670;2022-08-01T06:18:27;101558.56;;;17.48;84.62
69624;BME280;56843;52.020;5.670;2022-08-01T06:19:57;101567.19;;;17.54;84.45
69624;BME280;56843;52.020;5.670;2022-08-01T06:21:28;101578.41;;;17.56;84.31
69624;BME280;56843;52.020;5.670;2022-08-01T06:22:58;101571.72;;;17.50;84.04
69624;BME280;56843;52.020;5.670;2022-08-01T06:24:29;101573.38;;;17.39;84.56
69624;BME280;56843;52.020;5.670;2022-08-01T06:25:59;101574.00;;;17.32;84.77
69624;BME280;56843;52.020;5.670;2022-08-01T06:27:29;101570.34;;;17.25;85.24
69624;BME280;56843;52.020;5.670;2022-08-01T06:29:00;101567.47;;;17.18;85.05
69624;BME280;56843;52.020;5.670;2022-08-01T06:30:30;101580.69;;;17.07;85.34
69624;BME280;56843;52.020;5.670;2022-08-01T06:32:01;101576.09;;;17.08;85.53
69624;BME280;56843;52.020;5.670;2022-08-01T06:33:31;101574.69;;;17.14;85.57
69624;BME280;56843;52.020;5.670;2022-08-01T06:35:02;101585.13;;;17.15;85.26
69624;BME280;56843;52.020;5.670;2022-08-01T06:36:32;101580.19;;;17.17;85.45
69624;BME280;56843;52.020;5.670;2022-08-01T06:38:03;101575.56;;;17.18;85.27
69624;BME280;56843;52.020;5.670;2022-08-01T06:39:35;101577.94;;;17.19;85.49
69624;BME280;56843;52.020;5.670;2022-08-01T06:41:06;101578.63;;;17.16;85.33
69624;BME280;56843;52.020;5.670;2022-08-01T06:42:37;101581.75;;;17.18;85.48
69624;BME280;56843;52.020;5.670;2022-08-01T06:44:07;101588.38;;;17.21;85.29
69624;BME280;56843;52.020;5.670;2022-08-01T06:45:39;101586.47;;;17.21;85.57
69624;BME280;56843;52.020;5.670;2022-08-01T06:47:10;101588.97;;;17.30;85.29
69624;BME280;56843;52.020;5.670;2022-08-01T06:48:40;101592.19;;;17.35;85.16
69624;BME280;56843;52.020;5.670;2022-08-01T06:50:11;101589.22;;;17.40;85.02
69624;BME280;56843;52.020;5.670;2022-08-01T06:51:41;101590.47;;;17.43;85.03
69624;BME280;56843;52.020;5.670;2022-08-01T06:53:12;101587.50;;;17.48;84.81
69624;BME280;56843;52.020;5.670;2022-08-01T06:54:42;101588.72;;;17.50;84.97
69624;BME280;56843;52.020;5.670;2022-08-01T06:56:13;101597.94;;;17.49;84.83
69624;BME280;56843;52.020;5.670;2022-08-01T06:57:51;101588.44;;;17.55;84.85
69624;BME280;56843;52.020;5.670;2022-08-01T06:59:22;101587.38;;;17.60;84.75
69624;BME280;56843;52.020;5.670;2022-08-01T07:00:52;101589.22;;;17.72;84.53
69624;BME280;56843;52.020;5.670;2022-08-01T07:02:23;101586.75;;;17.82;84.26
69624;BME280;56843;52.020;5.670;2022-08-01T07:03:53;101596.53;;;17.87;83.66
69624;BME280;56843;52.020;5.670;2022-08-01T07:05:24;101594.19;;;17.85;83.63
69624;BME280;56843;52.020;5.670;2022-08-01T07:06:55;101589.81;;;17.81;83.73
69624;BME280;56843;52.020;5.670;2022-08-01T07:08:26;101586.31;;;17.80;83.85
69624;BME280;56843;52.020;5.670;2022-08-01T07:09:56;101591.34;;;17.82;83.79
69624;BME280;56843;52.020;5.670;2022-08-01T07:11:27;101581.09;;;17.87;83.74
69624;BME280;56843;52.020;5.670;2022-08-01T07:12:57;101584.28;;;17.93;83.56
69624;BME280;56843;52.020;5.670;2022-08-01T07:14:28;101596.13;;;18.04;83.22
69624;BME280;56843;52.020;5.670;2022-08-01T07:15:58;101590.03;;;18.07;82.98
69624;BME280;56843;52.020;5.670;2022-08-01T07:17:29;101590.09;;;18.10;82.99
69624;BME280;56843;52.020;5.670;2022-08-01T07:19:08;101587.84;;;18.12;82.62
69624;BME280;56843;52.020;5.670;2022-08-01T07:20:41;101598.78;;;18.19;82.41
69624;BME280;56843;52.020;5.670;2022-08-01T07:22:16;101605.28;;;18.34;82.42
69624;BME280;56843;52.020;5.670;2022-08-01T07:23:52;101593.56;;;18.46;81.90
69624;BME280;56843;52.020;5.670;2022-08-01T07:25:23;101592.38;;;18.47;81.68
69624;BME280;56843;52.020;5.670;2022-08-01T07:26:56;101591.97;;;18.45;82.19
69624;BME280;56843;52.020;5.670;2022-08-01T07:28:28;101596.97;;;18.43;82.12
69624;BME280;56843;52.020;5.670;2022-08-01T07:29:58;101605.28;;;18.34;82.09
69624;BME280;56843;52.020;5.670;2022-08-01T07:31:31;101591.56;;;18.23;82.41
69624;BME280;56843;52.020;5.670;2022-08-01T07:33:26;101602.69;;;18.22;82.76
69624;BME280;56843;52.020;5.670;2022-08-01T07:37:43;101606.78;;;18.31;82.35
69624;BME280;56843;52.020;5.670;2022-08-01T07:39:19;101611.97;;;18.40;81.94
69624;BME280;56843;52.020;5.670;2022-08-01T07:40:49;101598.22;;;18.49;81.84
69624;BME280;56843;52.020;5.670;2022-08-01T07:42:20;101605.69;;;18.55;81.40
69624;BME280;56843;52.020;5.670;2022-08-01T07:43:50;101606.75;;;18.51;81.10
69624;BME280;56843;52.020;5.670;2022-08-01T07:45:24;101603.28;;;18.50;80.81
69624;BME280;56843;52.020;5.670;2022-08-01T07:47:03;101606.84;;;18.54;81.12
69624;BME280;56843;52.020;5.670;2022-08-01T07:49:08;101605.78;;;18.59;81.14
69624;BME280;56843;52.020;5.670;2022-08-01T07:50:49;101612.38;;;18.61;80.60
69624;BME280;56843;52.020;5.670;2022-08-01T07:52:21;101620.88;;;18.60;80.79
69624;BME280;56843;52.020;5.670;2022-08-01T07:53:51;101625.00;;;18.54;81.06
69624;BME280;56843;52.020;5.670;2022-08-01T07:55:22;101629.19;;;18.51;81.07
69624;BME280;56843;52.020;5.670;2022-08-01T07:56:54;101632.13;;;18.43;81.50
69624;BME280;56843;52.020;5.670;2022-08-01T08:04:32;101628.81;;;18.14;82.27
69624;BME280;56843;52.020;5.670;2022-08-01T08:06:58;101623.22;;;18.23;82.07
69624;BME280;56843;52.020;5.670;2022-08-01T08:14:15;101637.88;;;18.60;80.31
69624;BME280;56843;52.020;5.670;2022-08-01T08:18:43;101639.47;;;18.80;79.78
69624;BME280;56843;52.020;5.670;2022-08-01T08:20:43;101646.94;;;18.87;79.66
69624;BME280;56843;52.020;5.670;2022-08-01T08:22:28;101638.53;;;18.92;79.70
69624;BME280;56843;52.020;5.670;2022-08-01T08:23:58;101640.84;;;18.90;79.76
69624;BME280;56843;52.020;5.670;2022-08-01T08:25:47;101650.34;;;18.84;79.73
69624;BME280;56843;52.020;5.670;2022-08-01T08:27:18;101645.78;;;18.69;80.03
69624;BME280;56843;52.020;5.670;2022-08-01T08:28:48;101654.19;;;18.45;80.68
69624;BME280;56843;52.020;5.670;2022-08-01T08:30:19;101653.56;;;18.16;81.50